sensor_id;sensor_type;location;lat;lon;timestamp;P1;durP1;ratioP1;P2;durP2;ratioP2
46643;SDS011;32371;51.032;5.816;2022-09-12T00:00:31;3.95;;;2.58;;
46643;SDS011;32371;51.032;5.816;2022-09-12T00:02:57;4.53;;;3.00;;
46643;SDS011;32371;51.032;5.816;2022-09-12T00:05:23;4.55;;;2.83;;
46643;SDS011;32371;51.032;5.816;2022-09-12T00:07:49;4.30;;;3.05;;
46643;SDS011;32371;51.032;5.816;2022-09-12T00:10:14;3.45;;;2.30;;
46643;SDS011;32371;51.032;5.816;2022-09-12T00:12:40;3.63;;;2.70;;
46643;SDS011;32371;51.032;5.816;2022-09-12T00:15:06;7.47;;;3.60;;
46643;SDS011;32371;51.032;5.816;2022-09-12T00:17:35;4.40;;;2.65;;
46643;SDS011;32371;51.032;5.816;2022-09-12T00:20:01;5.95;;;3.00;;
46643;SDS011;32371;51.032;5.816;2022-09-12T00:22:28;9.13;;;3.38;;
46643;SDS011;32371;51.032;5.816;2022-09-12T00:24:53;4.88;;;3.08;;
46643;SDS011;32371;51.032;5.816;2022-09-12T00:27:19;6.30;;;3.60;;
46643;SDS011;32371;51.032;5.816;2022-09-12T00:29:44;3.78;;;2.65;;
46643;SDS011;32371;51.032;5.816;2022-09-12T00:32:09;3.13;;;2.55;;
46643;SDS011;32371;51.032;5.816;2022-09-12T00:34:35;7.28;;;2.58;;
46643;SDS011;32371;51.032;5.816;2022-09-12T00:37:01;4.15;;;3.00;;
46643;SDS011;32371;51.032;5.816;2022-09-12T00:39:27;4.15;;;2.80;;
46643;SDS011;32371;51.032;5.816;2022-09-12T00:41:52;5.20;;;3.40;;
46643;SDS011;32371;51.032;5.816;2022-09-12T00:46:51;9.57;;;3.47;;
46643;SDS011;32371;51.032;5.816;2022-09-12T00:52:24;7.45;;;3.03;;
46643;SDS011;32371;51.032;5.816;2022-09-12T00:57:31;4.18;;;2.80;;
46643;SDS011;32371;51.032;5.816;2022-09-12T01:00:10;8.55;;;3.00;;
46643;SDS011;32371;51.032;5.816;2022-09-12T01:02:41;6.80;;;3.20;;
46643;SDS011;32371;51.032;5.816;2022-09-12T01:05:07;6.10;;;3.08;;
46643;SDS011;32371;51.032;5.816;2022-09-12T01:07:34;4.57;;;2.83;;
46643;SDS011;32371;51.032;5.816;2022-09-12T01:10:04;9.85;;;3.50;;
46643;SDS011;32371;51.032;5.816;2022-09-12T01:12:31;3.40;;;2.65;;
46643;SDS011;32371;51.032;5.816;2022-09-12T01:14:57;3.70;;;2.13;;
46643;SDS011;32371;51.032;5.816;2022-09-12T01:17:23;4.88;;;2.97;;
46643;SDS011;32371;51.032;5.816;2022-09-12T01:25:30;4.13;;;2.63;;
46643;SDS011;32371;51.032;5.816;2022-09-12T01:33:33;5.68;;;3.10;;
46643;SDS011;32371;51.032;5.816;2022-09-12T01:36:50;4.35;;;2.80;;
46643;SDS011;32371;51.032;5.816;2022-09-12T01:39:09;7.05;;;3.15;;
46643;SDS011;32371;51.032;5.816;2022-09-12T01:49:39;3.42;;;2.72;;
46643;SDS011;32371;51.032;5.816;2022-09-12T01:52:27;4.35;;;2.78;;
46643;SDS011;32371;51.032;5.816;2022-09-12T01:55:09;5.97;;;3.65;;
46643;SDS011;32371;51.032;5.816;2022-09-12T01:57:44;6.90;;;3.70;;
46643;SDS011;32371;51.032;5.816;2022-09-12T02:00:33;5.68;;;3.75;;
46643;SDS011;32371;51.032;5.816;2022-09-12T02:03:09;5.10;;;3.15;;
46643;SDS011;32371;51.032;5.816;2022-09-12T02:05:39;4.60;;;3.15;;
46643;SDS011;32371;51.032;5.816;2022-09-12T02:08:09;6.85;;;3.10;;
46643;SDS011;32371;51.032;5.816;2022-09-12T02:10:42;6.50;;;3.53;;
46643;SDS011;32371;51.032;5.816;2022-09-12T02:13:11;6.55;;;3.10;;
46643;SDS011;32371;51.032;5.816;2022-09-12T02:15:45;5.70;;;3.08;;
46643;SDS011;32371;51.032;5.816;2022-09-12T02:18:20;7.07;;;3.42;;
46643;SDS011;32371;51.032;5.816;2022-09-12T02:20:46;3.72;;;2.63;;
46643;SDS011;32371;51.032;5.816;2022-09-12T02:23:22;6.45;;;3.38;;
46643;SDS011;32371;51.032;5.816;2022-09-12T02:25:51;5.72;;;2.92;;
46643;SDS011;32371;51.032;5.816;2022-09-12T02:28:24;4.85;;;3.13;;
46643;SDS011;32371;51.032;5.816;2022-09-12T02:30:58;5.13;;;3.17;;
46643;SDS011;32371;51.032;5.816;2022-09-12T02:38:51;5.35;;;3.95;;
46643;SDS011;32371;51.032;5.816;2022-09-12T02:41:18;5.97;;;3.58;;
46643;SDS011;32371;51.032;5.816;2022-09-12T02:43:45;5.07;;;3.38;;
46643;SDS011;32371;51.032;5.816;2022-09-12T02:46:15;4.65;;;3.42;;
46643;SDS011;32371;51.032;5.816;2022-09-12T02:48:44;4.88;;;3.35;;
46643;SDS011;32371;51.032;5.816;2022-09-12T02:51:10;6.68;;;3.60;;
46643;SDS011;32371;51.032;5.816;2022-09-12T02:53:35;4.95;;;3.15;;
46643;SDS011;32371;51.032;5.816;2022-09-12T02:56:01;6.20;;;3.55;;
46643;SDS011;32371;51.032;5.816;2022-09-12T02:58:29;5.35;;;3.42;;
46643;SDS011;32371;51.032;5.816;2022-09-12T03:06:21;5.07;;;3.38;;
46643;SDS011;32371;51.032;5.816;2022-09-12T03:08:58;9.00;;;3.60;;
46643;SDS011;32371;51.032;5.816;2022-09-12T03:21:32;5.20;;;2.63;;
46643;SDS011;32371;51.032;5.816;2022-09-12T03:24:12;4.63;;;3.00;;
46643;SDS011;32371;51.032;5.816;2022-09-12T03:29:13;4.72;;;3.17;;
46643;SDS011;32371;51.032;5.816;2022-09-12T03:31:49;6.35;;;3.45;;
46643;SDS011;32371;51.032;5.816;2022-09-12T03:34:19;5.47;;;3.15;;
46643;SDS011;32371;51.032;5.816;2022-09-12T03:36:46;6.55;;;3.75;;
46643;SDS011;32371;51.032;5.816;2022-09-12T03:39:13;5.28;;;3.05;;
46643;SDS011;32371;51.032;5.816;2022-09-12T03:41:38;6.25;;;4.30;;
46643;SDS011;32371;51.032;5.816;2022-09-12T03:44:04;6.07;;;3.63;;
46643;SDS011;32371;51.032;5.816;2022-09-12T03:46:29;7.35;;;3.40;;
46643;SDS011;32371;51.032;5.816;2022-09-12T03:48:54;8.68;;;4.15;;
46643;SDS011;32371;51.032;5.816;2022-09-12T03:51:20;8.15;;;3.78;;
46643;SDS011;32371;51.032;5.816;2022-09-12T03:53:45;4.75;;;2.45;;
46643;SDS011;32371;51.032;5.816;2022-09-12T03:56:12;3.90;;;2.97;;
46643;SDS011;32371;51.032;5.816;2022-09-12T03:58:38;6.10;;;3.67;;
46643;SDS011;32371;51.032;5.816;2022-09-12T04:01:07;7.90;;;3.80;;
46643;SDS011;32371;51.032;5.816;2022-09-12T04:03:41;6.20;;;3.72;;
46643;SDS011;32371;51.032;5.816;2022-09-12T04:06:08;7.93;;;3.78;;
46643;SDS011;32371;51.032;5.816;2022-09-12T04:08:35;8.40;;;3.75;;
46643;SDS011;32371;51.032;5.816;2022-09-12T04:11:05;5.07;;;3.17;;
46643;SDS011;32371;51.032;5.816;2022-09-12T04:13:33;7.07;;;3.92;;
46643;SDS011;32371;51.032;5.816;2022-09-12T04:15:59;6.18;;;3.80;;
46643;SDS011;32371;51.032;5.816;2022-09-12T04:18:25;6.70;;;3.50;;
46643;SDS011;32371;51.032;5.816;2022-09-12T04:20:51;6.43;;;4.32;;
46643;SDS011;32371;51.032;5.816;2022-09-12T04:23:16;7.07;;;3.42;;
46643;SDS011;32371;51.032;5.816;2022-09-12T04:25:41;8.30;;;4.18;;
46643;SDS011;32371;51.032;5.816;2022-09-12T04:28:07;5.45;;;3.10;;
46643;SDS011;32371;51.032;5.816;2022-09-12T04:30:32;9.48;;;3.45;;
46643;SDS011;32371;51.032;5.816;2022-09-12T04:32:58;5.68;;;3.47;;
46643;SDS011;32371;51.032;5.816;2022-09-12T04:35:23;8.90;;;4.20;;
46643;SDS011;32371;51.032;5.816;2022-09-12T04:37:49;4.90;;;3.33;;
46643;SDS011;32371;51.032;5.816;2022-09-12T04:40:14;7.55;;;3.80;;
46643;SDS011;32371;51.032;5.816;2022-09-12T04:42:40;7.03;;;4.40;;
46643;SDS011;32371;51.032;5.816;2022-09-12T04:45:06;6.35;;;3.50;;
46643;SDS011;32371;51.032;5.816;2022-09-12T04:47:31;5.13;;;3.50;;
46643;SDS011;32371;51.032;5.816;2022-09-12T04:49:57;6.53;;;4.10;;
46643;SDS011;32371;51.032;5.816;2022-09-12T04:52:22;6.90;;;3.42;;
46643;SDS011;32371;51.032;5.816;2022-09-12T04:54:47;6.32;;;3.67;;
46643;SDS011;32371;51.032;5.816;2022-09-12T04:57:13;9.27;;;4.10;;
46643;SDS011;32371;51.032;5.816;2022-09-12T04:59:38;7.72;;;4.20;;
46643;SDS011;32371;51.032;5.816;2022-09-12T05:02:04;7.03;;;4.18;;
46643;SDS011;32371;51.032;5.816;2022-09-12T05:04:29;7.40;;;4.25;;
46643;SDS011;32371;51.032;5.816;2022-09-12T05:06:55;6.72;;;4.15;;
46643;SDS011;32371;51.032;5.816;2022-09-12T05:09:21;8.27;;;4.28;;
46643;SDS011;32371;51.032;5.816;2022-09-12T05:11:46;12.25;;;4.70;;
46643;SDS011;32371;51.032;5.816;2022-09-12T05:14:12;8.68;;;3.72;;
46643;SDS011;32371;51.032;5.816;2022-09-12T05:16:37;8.88;;;4.03;;
46643;SDS011;32371;51.032;5.816;2022-09-12T05:19:03;5.18;;;3.25;;
46643;SDS011;32371;51.032;5.816;2022-09-12T05:21:29;7.78;;;3.03;;
46643;SDS011;32371;51.032;5.816;2022-09-12T05:23:56;7.13;;;4.00;;
46643;SDS011;32371;51.032;5.816;2022-09-12T05:26:24;8.60;;;3.80;;
46643;SDS011;32371;51.032;5.816;2022-09-12T05:28:49;6.97;;;3.70;;
46643;SDS011;32371;51.032;5.816;2022-09-12T05:33:45;6.78;;;3.60;;
46643;SDS011;32371;51.032;5.816;2022-09-12T05:36:13;6.82;;;3.85;;
46643;SDS011;32371;51.032;5.816;2022-09-12T05:38:42;6.75;;;4.00;;
46643;SDS011;32371;51.032;5.816;2022-09-12T05:43:35;8.38;;;4.60;;
46643;SDS011;32371;51.032;5.816;2022-09-12T05:46:05;6.85;;;4.15;;
46643;SDS011;32371;51.032;5.816;2022-09-12T05:48:35;7.80;;;4.13;;
46643;SDS011;32371;51.032;5.816;2022-09-12T05:51:02;5.82;;;3.58;;
46643;SDS011;32371;51.032;5.816;2022-09-12T05:53:33;5.78;;;3.60;;
46643;SDS011;32371;51.032;5.816;2022-09-12T05:56:03;6.60;;;4.30;;
46643;SDS011;32371;51.032;5.816;2022-09-12T05:58:28;9.35;;;4.18;;
46643;SDS011;32371;51.032;5.816;2022-09-12T06:00:54;8.63;;;4.25;;
46643;SDS011;32371;51.032;5.816;2022-09-12T06:03:20;8.15;;;4.45;;
46643;SDS011;32371;51.032;5.816;2022-09-12T06:05:46;9.00;;;4.93;;
46643;SDS011;32371;51.032;5.816;2022-09-12T06:08:11;6.93;;;4.25;;
46643;SDS011;32371;51.032;5.816;2022-09-12T06:10:36;7.38;;;4.32;;
46643;SDS011;32371;51.032;5.816;2022-09-12T06:13:02;9.93;;;4.90;;
46643;SDS011;32371;51.032;5.816;2022-09-12T06:15:28;7.95;;;4.95;;
46643;SDS011;32371;51.032;5.816;2022-09-12T06:17:53;12.02;;;5.30;;
46643;SDS011;32371;51.032;5.816;2022-09-12T06:20:19;6.50;;;4.57;;
46643;SDS011;32371;51.032;5.816;2022-09-12T06:22:44;8.35;;;4.50;;
46643;SDS011;32371;51.032;5.816;2022-09-12T06:25:11;9.90;;;4.72;;
46643;SDS011;32371;51.032;5.816;2022-09-12T06:27:38;9.68;;;5.43;;
46643;SDS011;32371;51.032;5.816;2022-09-12T06:30:04;9.70;;;5.00;;
46643;SDS011;32371;51.032;5.816;2022-09-12T06:32:31;9.88;;;5.43;;
46643;SDS011;32371;51.032;5.816;2022-09-12T06:34:56;11.45;;;6.63;;
46643;SDS011;32371;51.032;5.816;2022-09-12T06:37:21;11.23;;;5.63;;
46643;SDS011;32371;51.032;5.816;2022-09-12T06:39:47;11.00;;;5.47;;
46643;SDS011;32371;51.032;5.816;2022-09-12T06:42:12;11.60;;;5.35;;
46643;SDS011;32371;51.032;5.816;2022-09-12T06:44:38;10.00;;;6.10;;
46643;SDS011;32371;51.032;5.816;2022-09-12T06:47:04;11.43;;;6.13;;
46643;SDS011;32371;51.032;5.816;2022-09-12T06:49:29;10.50;;;5.90;;
46643;SDS011;32371;51.032;5.816;2022-09-12T06:51:55;9.98;;;6.20;;
46643;SDS011;32371;51.032;5.816;2022-09-12T06:54:20;10.88;;;6.07;;
46643;SDS011;32371;51.032;5.816;2022-09-12T06:56:47;10.75;;;6.40;;
46643;SDS011;32371;51.032;5.816;2022-09-12T06:59:12;10.15;;;6.05;;
46643;SDS011;32371;51.032;5.816;2022-09-12T07:01:38;11.55;;;6.55;;
46643;SDS011;32371;51.032;5.816;2022-09-12T07:04:05;11.15;;;6.57;;
46643;SDS011;32371;51.032;5.816;2022-09-12T07:06:35;12.35;;;6.43;;
46643;SDS011;32371;51.032;5.816;2022-09-12T07:09:07;11.68;;;6.45;;
46643;SDS011;32371;51.032;5.816;2022-09-12T07:11:35;17.48;;;8.07;;
46643;SDS011;32371;51.032;5.816;2022-09-12T07:14:02;14.88;;;6.82;;
46643;SDS011;32371;51.032;5.816;2022-09-12T07:16:28;16.40;;;7.63;;
46643;SDS011;32371;51.032;5.816;2022-09-12T07:18:55;13.13;;;7.80;;
46643;SDS011;32371;51.032;5.816;2022-09-12T07:21:25;16.65;;;7.57;;
46643;SDS011;32371;51.032;5.816;2022-09-12T07:23:50;11.93;;;7.35;;
46643;SDS011;32371;51.032;5.816;2022-09-12T07:26:16;13.43;;;7.10;;
46643;SDS011;32371;51.032;5.816;2022-09-12T07:28:42;15.30;;;7.38;;
46643;SDS011;32371;51.032;5.816;2022-09-12T07:31:15;14.63;;;7.65;;
46643;SDS011;32371;51.032;5.816;2022-09-12T07:33:42;15.25;;;7.53;;
46643;SDS011;32371;51.032;5.816;2022-09-12T07:36:12;12.70;;;7.93;;
46643;SDS011;32371;51.032;5.816;2022-09-12T07:38:39;20.13;;;7.57;;
46643;SDS011;32371;51.032;5.816;2022-09-12T07:43:37;13.50;;;7.65;;
46643;SDS011;32371;51.032;5.816;2022-09-12T07:46:03;15.25;;;7.97;;
46643;SDS011;32371;51.032;5.816;2022-09-12T07:48:28;13.05;;;7.22;;
46643;SDS011;32371;51.032;5.816;2022-09-12T07:50:57;19.52;;;9.48;;
46643;SDS011;32371;51.032;5.816;2022-09-12T07:53:24;15.90;;;8.93;;
46643;SDS011;32371;51.032;5.816;2022-09-12T07:55:54;15.27;;;7.18;;
46643;SDS011;32371;51.032;5.816;2022-09-12T07:58:20;13.65;;;8.65;;
46643;SDS011;32371;51.032;5.816;2022-09-12T08:00:46;17.50;;;8.63;;
46643;SDS011;32371;51.032;5.816;2022-09-12T08:03:11;14.20;;;8.00;;
46643;SDS011;32371;51.032;5.816;2022-09-12T08:05:37;14.50;;;8.15;;
46643;SDS011;32371;51.032;5.816;2022-09-12T08:08:02;13.73;;;8.68;;
46643;SDS011;32371;51.032;5.816;2022-09-12T08:10:27;14.90;;;7.65;;
46643;SDS011;32371;51.032;5.816;2022-09-12T08:12:53;15.43;;;9.05;;
46643;SDS011;32371;51.032;5.816;2022-09-12T08:15:18;13.05;;;7.05;;
46643;SDS011;32371;51.032;5.816;2022-09-12T08:17:44;15.75;;;8.07;;
46643;SDS011;32371;51.032;5.816;2022-09-12T08:20:09;14.00;;;8.13;;
46643;SDS011;32371;51.032;5.816;2022-09-12T08:22:36;15.75;;;7.65;;
46643;SDS011;32371;51.032;5.816;2022-09-12T08:25:01;13.70;;;8.00;;
46643;SDS011;32371;51.032;5.816;2022-09-12T08:27:27;12.88;;;7.18;;
46643;SDS011;32371;51.032;5.816;2022-09-12T08:29:52;12.85;;;7.45;;
46643;SDS011;32371;51.032;5.816;2022-09-12T08:32:19;14.52;;;7.95;;
46643;SDS011;32371;51.032;5.816;2022-09-12T08:34:44;17.95;;;8.05;;
46643;SDS011;32371;51.032;5.816;2022-09-12T08:37:10;10.82;;;6.85;;
46643;SDS011;32371;51.032;5.816;2022-09-12T08:39:35;11.88;;;6.88;;
46643;SDS011;32371;51.032;5.816;2022-09-12T08:42:02;14.80;;;7.50;;
46643;SDS011;32371;51.032;5.816;2022-09-12T08:47:36;10.23;;;6.55;;
46643;SDS011;32371;51.032;5.816;2022-09-12T08:58:00;10.60;;;6.80;;
46643;SDS011;32371;51.032;5.816;2022-09-12T09:09:18;12.45;;;7.38;;
46643;SDS011;32371;51.032;5.816;2022-09-12T09:12:06;11.40;;;6.60;;
46643;SDS011;32371;51.032;5.816;2022-09-12T09:15:02;14.27;;;7.00;;
46643;SDS011;32371;51.032;5.816;2022-09-12T09:17:40;11.15;;;6.57;;
46643;SDS011;32371;51.032;5.816;2022-09-12T09:30:47;13.40;;;6.93;;
46643;SDS011;32371;51.032;5.816;2022-09-12T09:33:17;12.82;;;6.53;;
46643;SDS011;32371;51.032;5.816;2022-09-12T09:35:46;8.85;;;6.00;;
46643;SDS011;32371;51.032;5.816;2022-09-12T09:38:21;9.10;;;5.85;;
46643;SDS011;32371;51.032;5.816;2022-09-12T09:41:01;9.32;;;6.43;;
46643;SDS011;32371;51.032;5.816;2022-09-12T09:43:29;8.63;;;5.35;;
46643;SDS011;32371;51.032;5.816;2022-09-12T09:45:55;8.73;;;5.63;;
46643;SDS011;32371;51.032;5.816;2022-09-12T09:48:22;6.93;;;4.78;;
46643;SDS011;32371;51.032;5.816;2022-09-12T09:51:02;8.05;;;5.05;;
46643;SDS011;32371;51.032;5.816;2022-09-12T09:53:46;6.93;;;4.32;;
46643;SDS011;32371;51.032;5.816;2022-09-12T09:59:11;4.75;;;2.85;;
46643;SDS011;32371;51.032;5.816;2022-09-12T10:04:40;3.83;;;3.33;;
46643;SDS011;32371;51.032;5.816;2022-09-12T10:07:19;4.10;;;3.00;;
46643;SDS011;32371;51.032;5.816;2022-09-12T10:12:29;5.93;;;3.13;;
46643;SDS011;32371;51.032;5.816;2022-09-12T10:14:58;5.82;;;3.83;;
46643;SDS011;32371;51.032;5.816;2022-09-12T10:17:31;4.13;;;2.75;;
46643;SDS011;32371;51.032;5.816;2022-09-12T10:22:54;3.97;;;2.33;;
46643;SDS011;32371;51.032;5.816;2022-09-12T10:25:21;4.35;;;2.72;;
46643;SDS011;32371;51.032;5.816;2022-09-12T10:27:55;4.70;;;2.33;;
46643;SDS011;32371;51.032;5.816;2022-09-12T10:30:22;5.53;;;2.88;;
46643;SDS011;32371;51.032;5.816;2022-09-12T10:32:52;4.72;;;2.65;;
46643;SDS011;32371;51.032;5.816;2022-09-12T10:35:23;4.40;;;2.70;;
46643;SDS011;32371;51.032;5.816;2022-09-12T10:40:23;3.67;;;2.40;;
46643;SDS011;32371;51.032;5.816;2022-09-12T10:42:53;3.72;;;2.30;;
46643;SDS011;32371;51.032;5.816;2022-09-12T10:45:24;2.75;;;1.58;;
46643;SDS011;32371;51.032;5.816;2022-09-12T10:47:56;2.67;;;2.08;;
46643;SDS011;32371;51.032;5.816;2022-09-12T10:50:32;5.53;;;2.30;;
46643;SDS011;32371;51.032;5.816;2022-09-12T10:53:13;2.20;;;1.70;;
46643;SDS011;32371;51.032;5.816;2022-09-12T11:07:05;3.90;;;1.70;;
46643;SDS011;32371;51.032;5.816;2022-09-12T11:31:45;2.95;;;1.48;;
46643;SDS011;32371;51.032;5.816;2022-09-12T11:39:53;2.30;;;1.73;;
46643;SDS011;32371;51.032;5.816;2022-09-12T11:42:22;1.38;;;1.27;;
46643;SDS011;32371;51.032;5.816;2022-09-12T11:48:00;1.55;;;1.45;;
46643;SDS011;32371;51.032;5.816;2022-09-12T11:50:30;1.98;;;1.40;;
46643;SDS011;32371;51.032;5.816;2022-09-12T11:53:18;1.92;;;1.70;;
46643;SDS011;32371;51.032;5.816;2022-09-12T11:58:18;1.50;;;1.40;;
46643;SDS011;32371;51.032;5.816;2022-09-12T12:00:48;2.88;;;1.65;;
46643;SDS011;32371;51.032;5.816;2022-09-12T12:03:27;4.00;;;1.10;;
46643;SDS011;32371;51.032;5.816;2022-09-12T12:06:04;1.25;;;1.15;;
46643;SDS011;32371;51.032;5.816;2022-09-12T12:08:38;2.28;;;1.20;;
46643;SDS011;32371;51.032;5.816;2022-09-12T12:11:05;1.20;;;1.10;;
46643;SDS011;32371;51.032;5.816;2022-09-12T12:16:01;2.90;;;1.42;;
46643;SDS011;32371;51.032;5.816;2022-09-12T12:18:29;2.88;;;1.05;;
46643;SDS011;32371;51.032;5.816;2022-09-12T12:20:56;1.20;;;1.10;;
46643;SDS011;32371;51.032;5.816;2022-09-12T12:24:00;4.95;;;1.70;;
46643;SDS011;32371;51.032;5.816;2022-09-12T12:29:03;1.65;;;1.20;;
46643;SDS011;32371;51.032;5.816;2022-09-12T12:34:34;3.42;;;1.00;;
46643;SDS011;32371;51.032;5.816;2022-09-12T12:44:56;1.23;;;0.85;;
46643;SDS011;32371;51.032;5.816;2022-09-12T12:47:22;2.72;;;0.80;;
46643;SDS011;32371;51.032;5.816;2022-09-12T12:49:52;1.75;;;0.80;;
46643;SDS011;32371;51.032;5.816;2022-09-12T12:52:20;2.13;;;0.82;;
46643;SDS011;32371;51.032;5.816;2022-09-12T12:59:46;1.00;;;0.80;;
46643;SDS011;32371;51.032;5.816;2022-09-12T13:02:34;1.77;;;1.25;;
46643;SDS011;32371;51.032;5.816;2022-09-12T13:05:04;1.10;;;1.00;;
46643;SDS011;32371;51.032;5.816;2022-09-12T13:07:35;0.80;;;0.80;;
46643;SDS011;32371;51.032;5.816;2022-09-12T13:10:03;3.22;;;0.88;;
46643;SDS011;32371;51.032;5.816;2022-09-12T13:12:32;0.70;;;0.70;;
46643;SDS011;32371;51.032;5.816;2022-09-12T13:15:00;0.80;;;0.80;;
46643;SDS011;32371;51.032;5.816;2022-09-12T13:17:29;0.80;;;0.80;;
46643;SDS011;32371;51.032;5.816;2022-09-12T13:20:11;1.55;;;0.75;;
46643;SDS011;32371;51.032;5.816;2022-09-12T13:22:46;0.68;;;0.68;;
46643;SDS011;32371;51.032;5.816;2022-09-12T13:25:22;1.63;;;1.35;;
46643;SDS011;32371;51.032;5.816;2022-09-12T13:27:59;1.67;;;1.10;;
46643;SDS011;32371;51.032;5.816;2022-09-12T13:30:39;1.00;;;0.90;;
46643;SDS011;32371;51.032;5.816;2022-09-12T13:38:50;1.05;;;0.95;;
46643;SDS011;32371;51.032;5.816;2022-09-12T13:44:07;4.60;;;0.88;;
46643;SDS011;32371;51.032;5.816;2022-09-12T13:46:33;1.50;;;0.73;;
46643;SDS011;32371;51.032;5.816;2022-09-12T13:48:59;0.98;;;0.73;;
46643;SDS011;32371;51.032;5.816;2022-09-12T13:51:29;1.20;;;1.10;;
46643;SDS011;32371;51.032;5.816;2022-09-12T13:53:56;0.80;;;0.80;;
46643;SDS011;32371;51.032;5.816;2022-09-12T13:56:24;1.50;;;0.98;;
46643;SDS011;32371;51.032;5.816;2022-09-12T13:58:53;1.08;;;0.80;;
46643;SDS011;32371;51.032;5.816;2022-09-12T14:01:21;1.80;;;0.82;;
46643;SDS011;32371;51.032;5.816;2022-09-12T14:04:06;0.70;;;0.70;;
46643;SDS011;32371;51.032;5.816;2022-09-12T14:06:58;1.10;;;0.98;;
46643;SDS011;32371;51.032;5.816;2022-09-12T14:09:25;1.83;;;0.90;;
46643;SDS011;32371;51.032;5.816;2022-09-12T14:11:55;2.22;;;0.95;;
46643;SDS011;32371;51.032;5.816;2022-09-12T14:17:00;0.93;;;0.82;;
46643;SDS011;32371;51.032;5.816;2022-09-12T14:19:40;0.75;;;0.70;;
46643;SDS011;32371;51.032;5.816;2022-09-12T14:22:08;1.58;;;0.73;;
46643;SDS011;32371;51.032;5.816;2022-09-12T14:24:36;0.70;;;0.65;;
46643;SDS011;32371;51.032;5.816;2022-09-12T14:27:03;1.58;;;0.82;;
46643;SDS011;32371;51.032;5.816;2022-09-12T14:29:28;1.77;;;1.02;;
46643;SDS011;32371;51.032;5.816;2022-09-12T14:32:01;2.50;;;0.98;;
46643;SDS011;32371;51.032;5.816;2022-09-12T14:34:28;6.45;;;1.10;;
46643;SDS011;32371;51.032;5.816;2022-09-12T14:36:53;0.90;;;0.80;;
46643;SDS011;32371;51.032;5.816;2022-09-12T14:39:31;0.93;;;0.93;;
46643;SDS011;32371;51.032;5.816;2022-09-12T14:42:02;2.28;;;1.13;;
46643;SDS011;32371;51.032;5.816;2022-09-12T14:44:32;1.77;;;0.80;;
46643;SDS011;32371;51.032;5.816;2022-09-12T14:47:09;2.83;;;1.02;;
46643;SDS011;32371;51.032;5.816;2022-09-12T14:49:40;1.33;;;1.10;;
46643;SDS011;32371;51.032;5.816;2022-09-12T14:52:07;2.08;;;1.02;;
46643;SDS011;32371;51.032;5.816;2022-09-12T14:54:54;1.63;;;1.00;;
46643;SDS011;32371;51.032;5.816;2022-09-12T14:57:43;2.03;;;1.10;;
46643;SDS011;32371;51.032;5.816;2022-09-12T15:02:40;0.95;;;0.85;;
46643;SDS011;32371;51.032;5.816;2022-09-12T15:07:41;2.60;;;1.17;;
46643;SDS011;32371;51.032;5.816;2022-09-12T15:15:36;0.98;;;0.88;;
46643;SDS011;32371;51.032;5.816;2022-09-12T15:18:03;1.00;;;0.80;;
46643;SDS011;32371;51.032;5.816;2022-09-12T15:20:29;1.38;;;1.13;;
46643;SDS011;32371;51.032;5.816;2022-09-12T15:22:55;1.17;;;0.90;;
46643;SDS011;32371;51.032;5.816;2022-09-12T15:25:20;4.45;;;1.35;;
46643;SDS011;32371;51.032;5.816;2022-09-12T15:27:46;1.38;;;1.27;;
46643;SDS011;32371;51.032;5.816;2022-09-12T15:30:12;1.48;;;0.90;;
46643;SDS011;32371;51.032;5.816;2022-09-12T15:32:38;1.10;;;1.00;;
46643;SDS011;32371;51.032;5.816;2022-09-12T15:35:17;1.17;;;1.00;;
46643;SDS011;32371;51.032;5.816;2022-09-12T15:37:46;1.17;;;1.02;;
46643;SDS011;32371;51.032;5.816;2022-09-12T15:40:12;1.52;;;0.90;;
46643;SDS011;32371;51.032;5.816;2022-09-12T15:42:38;1.00;;;0.90;;
46643;SDS011;32371;51.032;5.816;2022-09-12T15:45:17;2.20;;;1.10;;
46643;SDS011;32371;51.032;5.816;2022-09-12T15:47:45;2.58;;;1.38;;
46643;SDS011;32371;51.032;5.816;2022-09-12T15:50:11;0.98;;;0.85;;
46643;SDS011;32371;51.032;5.816;2022-09-12T15:52:36;0.63;;;0.63;;
46643;SDS011;32371;51.032;5.816;2022-09-12T15:55:02;1.02;;;0.93;;
46643;SDS011;32371;51.032;5.816;2022-09-12T15:57:28;2.40;;;1.08;;
46643;SDS011;32371;51.032;5.816;2022-09-12T15:59:53;1.25;;;1.15;;
46643;SDS011;32371;51.032;5.816;2022-09-12T16:02:19;2.42;;;0.98;;
46643;SDS011;32371;51.032;5.816;2022-09-12T16:04:44;1.17;;;1.00;;
46643;SDS011;32371;51.032;5.816;2022-09-12T16:07:12;3.42;;;1.10;;
46643;SDS011;32371;51.032;5.816;2022-09-12T16:09:37;1.58;;;1.08;;
46643;SDS011;32371;51.032;5.816;2022-09-12T16:12:02;1.92;;;1.00;;
46643;SDS011;32371;51.032;5.816;2022-09-12T16:14:28;3.00;;;1.17;;
46643;SDS011;32371;51.032;5.816;2022-09-12T16:16:53;1.38;;;0.90;;
46643;SDS011;32371;51.032;5.816;2022-09-12T16:19:19;1.63;;;1.00;;
46643;SDS011;32371;51.032;5.816;2022-09-12T16:21:45;3.10;;;0.98;;
46643;SDS011;32371;51.032;5.816;2022-09-12T16:24:11;0.75;;;0.73;;
46643;SDS011;32371;51.032;5.816;2022-09-12T16:26:36;3.45;;;0.82;;
46643;SDS011;32371;51.032;5.816;2022-09-12T16:29:01;2.70;;;0.90;;
46643;SDS011;32371;51.032;5.816;2022-09-12T16:31:27;4.40;;;1.15;;
46643;SDS011;32371;51.032;5.816;2022-09-12T16:33:53;0.85;;;0.75;;
46643;SDS011;32371;51.032;5.816;2022-09-12T16:36:19;3.42;;;0.65;;
46643;SDS011;32371;51.032;5.816;2022-09-12T16:38:46;2.78;;;0.80;;
46643;SDS011;32371;51.032;5.816;2022-09-12T16:41:13;2.88;;;1.15;;
46643;SDS011;32371;51.032;5.816;2022-09-12T16:43:39;1.95;;;0.90;;
46643;SDS011;32371;51.032;5.816;2022-09-12T16:46:09;1.08;;;0.80;;
46643;SDS011;32371;51.032;5.816;2022-09-12T16:48:43;2.50;;;1.10;;
46643;SDS011;32371;51.032;5.816;2022-09-12T16:51:16;1.10;;;1.00;;
46643;SDS011;32371;51.032;5.816;2022-09-12T16:53:44;0.93;;;0.68;;
46643;SDS011;32371;51.032;5.816;2022-09-12T16:56:10;1.65;;;0.95;;
46643;SDS011;32371;51.032;5.816;2022-09-12T16:58:35;0.73;;;0.73;;
46643;SDS011;32371;51.032;5.816;2022-09-12T17:01:06;4.65;;;0.93;;
46643;SDS011;32371;51.032;5.816;2022-09-12T17:03:33;0.77;;;0.73;;
46643;SDS011;32371;51.032;5.816;2022-09-12T17:06:00;1.42;;;0.70;;
46643;SDS011;32371;51.032;5.816;2022-09-12T17:08:39;1.13;;;0.85;;
46643;SDS011;32371;51.032;5.816;2022-09-12T17:11:11;1.92;;;1.13;;
46643;SDS011;32371;51.032;5.816;2022-09-12T17:13:47;6.03;;;1.23;;
46643;SDS011;32371;51.032;5.816;2022-09-12T17:16:15;3.67;;;1.50;;
46643;SDS011;32371;51.032;5.816;2022-09-12T17:18:40;0.80;;;0.80;;
46643;SDS011;32371;51.032;5.816;2022-09-12T17:21:06;2.42;;;0.90;;
46643;SDS011;32371;51.032;5.816;2022-09-12T17:23:32;0.88;;;0.88;;
46643;SDS011;32371;51.032;5.816;2022-09-12T17:25:57;3.80;;;1.00;;
46643;SDS011;32371;51.032;5.816;2022-09-12T17:28:23;2.72;;;1.15;;
46643;SDS011;32371;51.032;5.816;2022-09-12T17:30:56;5.60;;;1.00;;
46643;SDS011;32371;51.032;5.816;2022-09-12T17:33:22;6.38;;;1.20;;
46643;SDS011;32371;51.032;5.816;2022-09-12T17:35:48;1.80;;;1.17;;
46643;SDS011;32371;51.032;5.816;2022-09-12T17:38:13;2.20;;;0.95;;
46643;SDS011;32371;51.032;5.816;2022-09-12T17:40:40;0.90;;;0.90;;
46643;SDS011;32371;51.032;5.816;2022-09-12T17:43:06;2.13;;;1.05;;
46643;SDS011;32371;51.032;5.816;2022-09-12T17:45:31;1.33;;;0.80;;
46643;SDS011;32371;51.032;5.816;2022-09-12T17:47:57;2.80;;;1.30;;
46643;SDS011;32371;51.032;5.816;2022-09-12T17:50:23;2.33;;;1.02;;
46643;SDS011;32371;51.032;5.816;2022-09-12T17:52:49;0.82;;;0.82;;
46643;SDS011;32371;51.032;5.816;2022-09-12T17:55:15;1.25;;;0.95;;
46643;SDS011;32371;51.032;5.816;2022-09-12T17:57:40;4.45;;;1.10;;
46643;SDS011;32371;51.032;5.816;2022-09-12T18:00:06;2.25;;;1.02;;
46643;SDS011;32371;51.032;5.816;2022-09-12T18:02:32;1.13;;;0.98;;
46643;SDS011;32371;51.032;5.816;2022-09-12T18:05:05;0.85;;;0.85;;